createdAt,value
2019-04-21T00:00:54.182Z,34.01
2019-04-21T00:01:50.570Z,33.01
2019-04-21T00:02:49.300Z,33.21
2019-04-21T00:03:52.124Z,33.11
2019-04-21T00:05:00.584Z,34.72
2019-04-21T00:06:09.482Z,33.51
2019-04-21T00:07:10.357Z,33.92
2019-04-21T00:08:13.832Z,34.42
2019-04-21T00:09:11.429Z,33.11
2019-04-21T00:10:06.284Z,33.41
2019-04-21T00:11:09.431Z,33.01
2019-04-21T00:12:12.418Z,34.12
2019-04-21T00:13:02.668Z,33.51
2019-04-21T00:14:01.888Z,33.51
2019-04-21T00:15:00.730Z,33.31
2019-04-21T00:15:54.005Z,32.90
2019-04-21T00:16:52.893Z,34.01
2019-04-21T00:17:51.799Z,33.61
2019-04-21T00:18:54.935Z,34.01
2019-04-21T00:19:47.681Z,33.92
2019-04-21T00:20:50.157Z,32.81
2019-04-21T00:21:52.681Z,32.69
2019-04-21T00:22:58.818Z,32.08
2019-04-21T00:24:00.353Z,32.79
2019-04-21T00:25:01.043Z,33.09
2019-04-21T00:25:58.144Z,32.60
2019-04-21T00:27:06.920Z,33.41
2019-04-21T00:28:10.679Z,33.11
2019-04-21T00:29:10.934Z,32.99
2019-04-21T00:30:12.127Z,32.70
2019-04-21T00:31:06.486Z,33.01
2019-04-21T00:32:03.391Z,34.01
2019-04-21T00:32:56.415Z,34.03
2019-04-21T00:33:49.653Z,33.33
2019-04-21T00:34:52.246Z,34.15
2019-04-21T00:35:55.042Z,35.04
2019-04-21T00:36:58.080Z,34.75
2019-04-21T00:38:07.876Z,33.02
2019-04-21T00:40:13.176Z,32.60
2019-04-21T00:41:08.869Z,34.44
2019-04-21T00:42:05.655Z,33.31
2019-04-21T00:43:06.390Z,32.50
2019-04-21T00:44:01.997Z,33.31
2019-04-21T00:45:01.802Z,32.70
2019-04-21T00:45:57.537Z,33.01
2019-04-21T00:47:00.683Z,34.74
2019-04-21T00:48:11.098Z,34.33
2019-04-21T00:49:03.181Z,34.05
2019-04-21T00:50:05.287Z,34.86
2019-04-21T00:51:29.061Z,34.05
2019-04-21T00:52:24.765Z,34.45
2019-04-21T00:53:05.506Z,34.03
2019-04-21T00:54:13.308Z,33.12
2019-04-21T00:55:25.058Z,32.60
2019-04-21T00:56:08.959Z,32.70
2019-04-21T00:57:13.083Z,32.70
2019-04-21T00:58:13.124Z,32.70
2019-04-21T00:59:13.965Z,33.51
2019-04-21T01:00:14.179Z,33.53
2019-04-21T01:01:12.629Z,34.13
2019-04-21T01:02:04.421Z,33.53
2019-04-21T01:03:10.963Z,33.12
2019-04-21T01:04:09.291Z,33.92
2019-04-21T01:05:15.446Z,33.01
2019-04-21T01:06:14.313Z,33.53
2019-04-21T01:07:11.108Z,33.63
2019-04-21T01:08:09.945Z,33.83
2019-04-21T01:09:05.282Z,33.33
2019-04-21T01:09:59.176Z,33.22
2019-04-21T01:11:11.368Z,33.33
2019-04-21T01:12:08.403Z,33.02
2019-04-21T01:13:09.587Z,33.95
2019-04-21T01:14:13.187Z,34.64
2019-04-21T01:15:10.112Z,34.05
2019-04-21T01:16:07.250Z,34.66
2019-04-21T01:17:15.744Z,34.05
2019-04-21T01:18:12.330Z,34.67
2019-04-21T01:19:05.011Z,36.79
2019-04-21T01:20:01.712Z,37.72
2019-04-21T01:20:46.392Z,36.81
2019-04-21T01:21:45.372Z,41.20
2019-04-21T01:22:45.382Z,42.13
2019-04-21T01:23:46.476Z,43.47
2019-04-21T01:24:49.100Z,41.66
2019-04-21T01:26:01.862Z,45.13
2019-04-21T01:26:56.866Z,45.56
2019-04-21T01:28:02.209Z,45.23
2019-04-21T01:29:01.286Z,45.13
2019-04-21T01:30:14.238Z,42.82
2019-04-21T01:31:07.498Z,43.93
2019-04-21T01:32:10.446Z,44.16
2019-04-21T01:33:09.539Z,40.89
2019-04-21T01:34:08.332Z,39.55
2019-04-21T01:35:08.366Z,38.50
2019-04-21T01:36:03.753Z,43.37
2019-04-21T01:37:03.989Z,41.66
2019-04-21T01:38:06.738Z,38.32
2019-04-21T01:39:06.694Z,41.05
2019-04-21T01:40:14.009Z,44.10
2019-04-21T01:41:08.640Z,46.04
2019-04-21T01:42:03.761Z,47.63
2019-04-21T01:43:07.715Z,48.75
2019-04-21T01:44:07.531Z,50.09
2019-04-21T01:45:05.409Z,50.12
2019-04-21T01:46:06.655Z,50.34
2019-04-21T01:47:03.277Z,50.55
2019-04-21T01:48:02.488Z,51.46
2019-04-21T01:49:03.362Z,49.25
2019-04-21T01:49:55.607Z,51.48
2019-04-21T01:51:00.638Z,50.06
2019-04-21T01:52:17.647Z,51.18
2019-04-21T01:53:13.974Z,48.23
2019-04-21T01:54:12.505Z,42.57
2019-04-21T01:55:06.392Z,43.24
2019-04-21T01:56:07.875Z,45.15
2019-04-21T01:57:02.133Z,42.94
2019-04-21T01:58:01.855Z,42.02
2019-04-21T01:58:53.943Z,42.13
2019-04-21T01:59:58.554Z,41.62
2019-04-21T02:01:02.064Z,41.93
2019-04-21T02:03:10.353Z,40.38
2019-04-21T02:04:11.723Z,39.15
2019-04-21T02:05:15.091Z,38.52
2019-04-21T02:06:15.325Z,39.03
2019-04-21T02:07:09.397Z,39.31
2019-04-21T02:08:05.462Z,44.22
2019-04-21T02:09:06.478Z,46.09
2019-04-21T02:10:11.036Z,43.44
2019-04-21T02:11:12.301Z,43.98
2019-04-21T02:12:10.097Z,43.87
2019-04-21T02:13:03.488Z,43.65
2019-04-21T02:14:23.007Z,42.84
2019-04-21T02:15:11.087Z,41.82
2019-04-21T02:16:06.556Z,41.93
2019-04-21T02:17:12.450Z,43.37
2019-04-21T02:18:07.517Z,42.94
2019-04-21T02:19:08.331Z,43.96
2019-04-21T02:20:01.679Z,42.23
2019-04-21T02:20:52.844Z,43.24
2019-04-21T02:21:59.278Z,41.72
2019-04-21T02:24:16.995Z,39.04
2019-04-21T02:25:11.318Z,39.53
2019-04-21T02:26:11.380Z,39.13
2019-04-21T02:27:06.730Z,38.30
2019-04-21T02:28:18.040Z,37.27
2019-04-21T02:29:10.707Z,37.43
2019-04-21T02:30:14.239Z,36.51
2019-04-21T02:32:14.736Z,39.14
2019-04-21T02:33:27.890Z,39.28
2019-04-21T02:34:37.353Z,40.81
2019-04-21T02:35:24.601Z,42.78
2019-04-21T02:39:35.387Z,48.06
2019-04-21T02:41:18.278Z,48.72
2019-04-21T02:42:23.226Z,48.31
2019-04-21T02:43:18.751Z,50.14
2019-04-21T02:45:17.150Z,48.82
2019-04-21T02:46:27.111Z,51.28
2019-04-21T02:47:16.746Z,47.92
2019-04-21T02:49:22.766Z,52.83
2019-04-21T02:50:17.576Z,53.27
2019-04-21T02:51:21.842Z,53.19
2019-04-21T02:52:27.443Z,52.58
2019-04-21T02:53:22.097Z,53.11
2019-04-21T02:54:45.735Z,53.22
2019-04-21T02:55:13.432Z,51.38
2019-04-21T02:56:18.572Z,50.54
2019-04-21T02:57:15.696Z,47.05
2019-04-21T02:58:20.789Z,48.05
2019-04-21T02:59:18.686Z,47.80
2019-04-21T03:00:32.535Z,46.98
2019-04-21T03:01:26.003Z,44.83
2019-04-21T03:02:19.042Z,45.75
2019-04-21T03:03:23.044Z,46.97
2019-04-21T03:05:21.215Z,43.90
2019-04-21T03:06:18.657Z,45.62
2019-04-21T03:08:14.366Z,39.11
2019-04-21T03:09:20.541Z,42.98
2019-04-21T03:10:21.640Z,39.73
2019-04-21T03:13:21.698Z,41.02
2019-04-21T03:14:16.448Z,44.20
2019-04-21T03:16:23.310Z,48.97
2019-04-21T03:17:22.357Z,50.14
2019-04-21T03:18:13.294Z,51.08
2019-04-21T03:19:19.999Z,51.10
2019-04-21T03:21:16.876Z,50.19
2019-04-21T03:23:23.806Z,53.16
2019-04-21T03:24:17.322Z,52.17
2019-04-21T03:25:30.383Z,50.52
2019-04-21T03:26:28.334Z,53.90
2019-04-21T03:28:14.282Z,55.05
2019-04-21T03:29:19.732Z,53.85
2019-04-21T03:30:55.792Z,53.92
2019-04-21T03:31:49.468Z,53.85
2019-04-21T03:35:53.477Z,51.56
2019-04-21T03:38:22.329Z,48.89
2019-04-21T03:39:07.772Z,49.98
2019-04-21T03:40:14.554Z,50.19
2019-04-21T03:41:26.840Z,50.90
2019-04-21T03:43:31.605Z,49.50
2019-04-21T03:44:14.591Z,49.07
2019-04-21T03:45:23.351Z,48.96
2019-04-21T03:46:16.007Z,51.20
2019-04-21T03:48:17.346Z,55.15
2019-04-21T03:49:19.274Z,55.99
2019-04-21T03:50:11.390Z,56.53
2019-04-21T03:55:41.551Z,51.51
2019-04-21T03:56:27.066Z,51.61
2019-04-21T03:57:19.844Z,49.42
2019-04-21T03:58:24.290Z,47.16
2019-04-21T03:59:11.090Z,50.29
2019-04-21T04:00:20.912Z,48.05
2019-04-21T04:02:25.744Z,47.09
2019-04-21T04:03:33.140Z,45.97
2019-04-21T04:04:22.452Z,45.34
2019-04-21T04:05:25.569Z,44.22
2019-04-21T04:06:25.984Z,43.90
2019-04-21T04:07:25.203Z,43.49
2019-04-21T04:08:21.833Z,44.28
2019-04-21T04:09:19.530Z,43.98
2019-04-21T04:10:11.814Z,43.98
2019-04-21T04:11:19.747Z,43.47
2019-04-21T04:12:13.332Z,44.48
2019-04-21T04:13:04.657Z,44.81
2019-04-21T04:15:24.626Z,45.42
2019-04-21T04:17:17.049Z,44.12
2019-04-21T04:18:16.647Z,44.53
2019-04-21T04:19:34.417Z,44.83
2019-04-21T04:20:23.605Z,45.54
2019-04-21T04:21:24.287Z,45.54
2019-04-21T04:24:27.311Z,45.64
2019-04-21T04:25:18.855Z,46.28
2019-04-21T04:26:13.041Z,49.02
2019-04-21T04:27:36.903Z,48.03
2019-04-21T04:28:19.501Z,46.81
2019-04-21T04:29:26.352Z,47.52
2019-04-21T04:30:29.642Z,47.01
2019-04-21T04:31:26.002Z,46.81
2019-04-21T04:32:14.495Z,49.15
2019-04-21T04:33:20.809Z,49.25
2019-04-21T04:34:29.208Z,49.88
2019-04-21T04:35:23.144Z,48.35
2019-04-21T04:36:30.326Z,46.30
2019-04-21T04:37:28.724Z,46.17
2019-04-21T04:38:22.264Z,45.97
2019-04-21T04:39:25.914Z,46.25
2019-04-21T04:40:14.214Z,46.15
2019-04-21T04:41:24.487Z,46.36
2019-04-21T04:43:19.302Z,44.48
2019-04-21T04:44:26.524Z,44.28
2019-04-21T04:46:35.266Z,45.28
2019-04-21T04:48:11.819Z,44.06
2019-04-21T04:49:23.717Z,44.04
2019-04-21T04:50:12.519Z,43.43
2019-04-21T04:51:30.663Z,43.43
2019-04-21T04:52:34.499Z,46.04
2019-04-21T04:53:20.332Z,44.13
2019-04-21T04:54:21.755Z,43.41
2019-04-21T04:56:18.300Z,41.48
2019-04-21T04:57:45.182Z,42.07
2019-04-21T05:00:19.802Z,43.49
2019-04-21T05:01:29.796Z,41.24
2019-04-21T05:03:20.776Z,41.54
2019-04-21T05:04:20.499Z,41.46
2019-04-21T05:05:22.301Z,41.97
2019-04-21T05:06:29.808Z,41.46
2019-04-21T05:07:16.946Z,42.05
2019-04-21T05:08:26.370Z,41.74
2019-04-21T05:09:13.281Z,41.85
2019-04-21T05:12:11.748Z,47.64
2019-04-21T05:13:16.133Z,45.43
2019-04-21T05:15:11.428Z,45.31
2019-04-21T05:16:26.392Z,45.54
2019-04-21T05:18:22.406Z,47.59
2019-04-21T05:19:16.372Z,45.64
2019-04-21T05:20:11.494Z,43.61
2019-04-21T05:21:26.662Z,41.46
2019-04-21T05:22:17.332Z,42.78
2019-04-21T05:23:08.918Z,42.05
2019-04-21T05:24:00.017Z,41.12
2019-04-21T05:24:58.430Z,41.42
2019-04-21T05:25:58.409Z,41.63
2019-04-21T05:26:58.406Z,41.52
2019-04-21T05:28:01.061Z,41.54
2019-04-21T05:28:55.500Z,41.02
2019-04-21T05:30:08.420Z,41.22
2019-04-21T05:31:13.939Z,40.91
2019-04-21T05:32:11.778Z,40.29
2019-04-21T05:33:07.109Z,41.32
2019-04-21T05:34:03.112Z,46.18
2019-04-21T05:35:10.836Z,45.87
2019-04-21T05:36:04.760Z,49.85
2019-04-21T05:37:01.387Z,52.81
2019-04-21T05:38:05.793Z,53.12
2019-04-21T05:39:02.524Z,49.92
2019-04-21T05:39:57.463Z,49.82
2019-04-21T05:40:59.087Z,47.71
2019-04-21T05:41:54.271Z,47.61
2019-04-21T05:43:02.251Z,47.69
2019-04-21T05:44:03.772Z,48.19
2019-04-21T05:45:14.709Z,48.10
2019-04-21T05:46:04.410Z,48.02
2019-04-21T05:47:15.860Z,47.71
2019-04-21T05:48:11.926Z,47.22
2019-04-21T05:49:06.811Z,46.59
2019-04-21T05:50:00.858Z,50.63
2019-04-21T05:51:00.647Z,52.25
2019-04-21T05:51:58.462Z,48.02
2019-04-21T05:53:00.097Z,47.91
2019-04-21T05:54:21.003Z,50.04
2019-04-21T05:55:12.334Z,47.51
2019-04-21T05:56:15.994Z,46.27
2019-04-21T05:57:05.261Z,45.66
2019-04-21T05:59:05.131Z,46.14
2019-04-21T05:59:59.161Z,45.31
2019-04-21T06:02:16.031Z,45.59
2019-04-21T06:03:10.198Z,45.90
2019-04-21T06:04:20.491Z,44.56
2019-04-21T06:06:13.842Z,43.63
2019-04-21T06:07:13.703Z,42.92
2019-04-21T06:08:09.698Z,43.10
2019-04-21T06:09:10.023Z,43.18
2019-04-21T06:10:04.530Z,41.77
2019-04-21T06:11:07.284Z,44.37
2019-04-21T06:12:02.707Z,45.29
2019-04-21T06:13:05.808Z,43.67
2019-04-21T06:14:08.224Z,45.47
2019-04-21T06:15:12.268Z,46.78
2019-04-21T06:16:21.499Z,47.26
2019-04-21T06:17:11.588Z,46.05
2019-04-21T06:18:05.327Z,47.54
2019-04-21T06:19:03.407Z,49.56
2019-04-21T06:20:10.356Z,45.85
2019-04-21T06:21:05.574Z,45.18
2019-04-21T06:22:04.584Z,46.91
2019-04-21T06:23:07.878Z,45.18
2019-04-21T06:24:05.264Z,45.43
2019-04-21T06:25:39.445Z,46.87
2019-04-21T06:26:25.622Z,46.99
2019-04-21T06:27:08.416Z,47.22
2019-04-21T06:28:05.502Z,47.72
2019-04-21T06:29:02.995Z,49.04
2019-04-21T06:30:05.228Z,50.76
2019-04-21T06:31:11.360Z,52.56
2019-04-21T06:32:29.571Z,52.86
2019-04-21T06:33:24.087Z,51.78
2019-04-21T06:34:03.539Z,51.09
2019-04-21T06:35:12.465Z,52.05
2019-04-21T06:36:24.186Z,52.46
2019-04-21T06:37:31.015Z,52.58
2019-04-21T06:38:05.719Z,53.52
2019-04-21T06:39:11.384Z,54.46
2019-04-21T06:40:19.947Z,55.18
2019-04-21T06:42:07.331Z,55.38
2019-04-21T06:43:18.020Z,55.88
2019-04-21T06:44:07.615Z,57.23
2019-04-21T06:45:09.856Z,58.56
2019-04-21T06:46:17.825Z,57.74
2019-04-21T06:47:13.908Z,56.73
2019-04-21T06:48:11.011Z,55.91
2019-04-21T06:49:02.813Z,52.63
2019-04-21T06:50:01.997Z,50.45
2019-04-21T06:51:13.726Z,50.86
2019-04-21T06:52:19.316Z,53.30
2019-04-21T06:53:06.827Z,53.60
2019-04-21T06:55:12.594Z,48.68
2019-04-21T06:56:04.990Z,48.38
2019-04-21T06:57:00.915Z,49.87
2019-04-21T06:58:08.345Z,49.98
2019-04-21T06:59:06.692Z,50.38
2019-04-21T07:00:03.519Z,50.99
2019-04-21T07:01:05.184Z,50.59
2019-04-21T07:02:26.421Z,50.89
2019-04-21T07:03:17.229Z,50.38
2019-04-21T07:04:15.553Z,49.75
2019-04-21T07:05:20.306Z,49.24
2019-04-21T07:06:07.997Z,46.18
2019-04-21T07:07:18.899Z,45.98
2019-04-21T07:08:21.702Z,47.38
2019-04-21T07:09:16.026Z,49.40
2019-04-21T07:10:24.230Z,46.84
2019-04-21T07:11:05.372Z,45.33
2019-04-21T07:12:04.188Z,43.29
2019-04-21T07:13:03.483Z,45.10
2019-04-21T07:14:19.731Z,51.05
2019-04-21T07:15:04.057Z,53.17
2019-04-21T07:16:04.540Z,54.44
2019-04-21T07:17:11.534Z,55.98
2019-04-21T07:18:09.009Z,56.08
2019-04-21T07:19:12.444Z,56.18
2019-04-21T07:20:07.217Z,55.27
2019-04-21T07:21:06.493Z,55.07
2019-04-21T07:22:03.293Z,55.37
2019-04-21T07:23:05.127Z,54.26
2019-04-21T07:23:58.945Z,53.05
2019-04-21T07:25:10.494Z,52.64
2019-04-21T07:26:07.610Z,52.94
2019-04-21T07:27:08.970Z,53.42
2019-04-21T07:28:02.972Z,53.67
2019-04-21T07:29:21.946Z,54.96
2019-04-21T07:30:04.623Z,53.72
2019-04-21T07:31:13.017Z,53.50
2019-04-21T07:32:04.273Z,54.21
2019-04-21T07:33:19.145Z,54.94
2019-04-21T07:35:11.766Z,54.94
2019-04-21T07:36:06.499Z,54.86
2019-04-21T07:37:07.742Z,55.47
2019-04-21T07:38:05.539Z,54.66
2019-04-21T07:39:00.198Z,55.44
2019-04-21T07:40:01.811Z,56.76
2019-04-21T07:40:58.767Z,57.09
2019-04-21T07:42:00.893Z,56.68
2019-04-21T07:43:00.178Z,56.56
2019-04-21T07:43:55.388Z,56.15
2019-04-21T07:44:56.752Z,55.74
2019-04-21T07:45:58.591Z,55.92
2019-04-21T07:46:58.547Z,55.99
2019-04-21T07:48:00.884Z,55.46
2019-04-21T07:48:59.944Z,55.24
2019-04-21T07:50:04.581Z,54.50
2019-04-21T07:51:06.202Z,53.25
2019-04-21T07:52:03.062Z,50.91
2019-04-21T07:53:08.354Z,50.76
2019-04-21T07:54:23.801Z,46.34
2019-04-21T07:55:16.652Z,50.86
2019-04-21T07:55:45.836Z,50.56
2019-04-21T07:56:56.076Z,48.65
2019-04-21T07:58:12.459Z,48.75
2019-04-21T07:59:03.828Z,44.10
2019-04-21T08:00:16.446Z,44.91
2019-04-21T08:01:04.308Z,40.69
2019-04-21T08:02:01.248Z,42.97
2019-04-21T08:03:03.990Z,43.36
2019-04-21T08:04:03.360Z,46.97
2019-04-21T08:05:07.560Z,49.40
2019-04-21T08:06:07.803Z,49.51
2019-04-21T08:06:56.669Z,48.38
2019-04-21T08:08:12.197Z,47.03
2019-04-21T08:08:59.440Z,45.12
2019-04-21T08:09:58.439Z,48.46
2019-04-21T08:10:59.745Z,47.35
2019-04-21T08:12:59.702Z,48.03
2019-04-21T08:14:04.575Z,49.18
2019-04-21T08:15:09.878Z,49.01
2019-04-21T08:16:05.729Z,48.70
2019-04-21T08:17:03.194Z,48.43
2019-04-21T08:18:03.727Z,48.85
2019-04-21T08:18:59.834Z,48.30
2019-04-21T08:19:59.036Z,48.30
2019-04-21T08:21:02.430Z,47.70
2019-04-21T08:22:05.208Z,46.97
2019-04-21T08:24:01.553Z,46.48
2019-04-21T08:25:03.162Z,45.26
2019-04-21T08:26:04.923Z,43.63
2019-04-21T08:27:05.062Z,43.91
2019-04-21T08:27:58.417Z,43.71
2019-04-21T08:29:14.500Z,43.70
2019-04-21T08:30:00.989Z,42.97
2019-04-21T08:31:04.577Z,39.74
2019-04-21T08:32:30.703Z,39.94
2019-04-21T08:34:07.891Z,36.54
2019-04-21T08:35:23.911Z,38.20
2019-04-21T08:36:57.560Z,41.24
2019-04-21T08:38:05.249Z,39.23
2019-04-21T08:39:01.131Z,38.70
2019-04-21T08:41:01.556Z,38.56
2019-04-21T08:41:55.967Z,37.64
2019-04-21T08:43:02.491Z,37.92
2019-04-21T08:43:57.424Z,37.52
2019-04-21T08:45:06.064Z,37.72
2019-04-21T08:45:58.913Z,36.54
2019-04-21T08:47:09.706Z,37.54
2019-04-21T08:48:05.848Z,37.42
2019-04-21T08:49:04.278Z,37.84
2019-04-21T08:50:00.682Z,38.44
2019-04-21T08:51:13.984Z,38.52
2019-04-21T08:52:16.730Z,38.60
2019-04-21T08:52:59.765Z,36.19
2019-04-21T08:54:02.389Z,36.91
2019-04-21T08:55:03.633Z,38.80
2019-04-21T08:56:04.389Z,37.98
2019-04-21T08:57:05.732Z,37.37
2019-04-21T08:58:08.440Z,37.57
2019-04-21T08:59:03.849Z,37.08
2019-04-21T09:00:09.835Z,36.93
2019-04-21T09:01:03.853Z,37.10
2019-04-21T09:02:02.502Z,36.94
2019-04-21T09:03:02.662Z,36.32
2019-04-21T09:03:59.928Z,35.89
2019-04-21T09:05:03.430Z,35.08
2019-04-21T09:05:59.623Z,35.16
2019-04-21T09:07:10.549Z,35.64
2019-04-21T09:08:05.291Z,34.61
2019-04-21T09:10:00.849Z,32.51
2019-04-21T09:10:59.601Z,32.29
2019-04-21T09:11:59.707Z,31.68
2019-04-21T09:13:02.580Z,32.05
2019-04-21T09:14:00.995Z,31.23
2019-04-21T09:15:00.856Z,31.51
2019-04-21T09:15:59.871Z,30.02
2019-04-21T09:16:56.345Z,30.80
2019-04-21T09:17:53.457Z,30.18
2019-04-21T09:18:54.122Z,29.64
2019-04-21T09:20:20.966Z,28.24
2019-04-21T09:21:04.917Z,29.39
2019-04-21T09:22:00.493Z,29.50
2019-04-21T09:23:00.513Z,27.79
2019-04-21T09:24:00.625Z,29.10
2019-04-21T09:25:00.092Z,28.99
2019-04-21T09:25:58.856Z,29.83
2019-04-21T09:26:58.002Z,28.83
2019-04-21T09:28:02.278Z,27.82
2019-04-21T09:28:52.094Z,27.61
2019-04-21T09:29:47.903Z,27.89
2019-04-21T09:30:49.940Z,27.25
2019-04-21T09:31:43.506Z,27.76
2019-04-21T09:32:42.342Z,28.47
2019-04-21T09:33:45.396Z,28.09
2019-04-21T09:34:44.195Z,28.47
2019-04-21T09:35:49.156Z,29.23
2019-04-21T09:36:47.630Z,27.85
2019-04-21T09:37:51.622Z,27.78
2019-04-21T09:38:42.466Z,28.37
2019-04-21T09:39:45.201Z,29.35
2019-04-21T09:40:47.211Z,28.55
2019-04-21T09:41:41.508Z,28.56
2019-04-21T09:42:47.397Z,27.75
2019-04-21T09:43:46.845Z,28.14
2019-04-21T09:44:44.021Z,26.56
2019-04-21T09:45:40.804Z,26.56
2019-04-21T09:46:47.174Z,27.03
2019-04-21T09:47:48.490Z,25.12
2019-04-21T09:48:50.112Z,27.97
2019-04-21T09:49:41.879Z,26.19
2019-04-21T09:50:41.341Z,23.22
2019-04-21T09:51:39.746Z,25.59
2019-04-21T09:52:47.697Z,26.58
2019-04-21T09:53:42.232Z,25.72
2019-04-21T09:54:48.167Z,27.14
2019-04-21T09:55:49.998Z,27.56
2019-04-21T09:56:50.395Z,26.84
2019-04-21T09:57:47.508Z,25.27
2019-04-21T09:58:45.818Z,23.16
2019-04-21T09:59:47.619Z,20.92
2019-04-21T10:00:51.053Z,21.32
2019-04-21T10:01:56.000Z,23.25
2019-04-21T10:02:51.616Z,24.46
2019-04-21T10:03:46.653Z,24.05
2019-04-21T10:04:40.665Z,24.43
2019-04-21T10:05:39.612Z,24.66
2019-04-21T10:06:39.625Z,23.89
2019-04-21T10:07:42.380Z,23.74
2019-04-21T10:08:39.599Z,22.72
2019-04-21T10:09:39.739Z,21.24
2019-04-21T10:10:40.035Z,21.94
2019-04-21T10:11:39.555Z,21.82
2019-04-21T10:12:39.541Z,21.23
2019-04-21T10:13:39.823Z,23.33
2019-04-21T10:14:40.821Z,25.05
2019-04-21T10:15:39.732Z,24.04
2019-04-21T10:16:40.642Z,23.13
2019-04-21T10:17:39.604Z,24.30
2019-04-21T10:18:40.309Z,22.30
2019-04-21T10:19:39.773Z,22.22
2019-04-21T10:20:40.565Z,22.91
2019-04-21T10:21:40.279Z,21.34
2019-04-21T10:22:39.462Z,21.45
2019-04-21T10:23:39.495Z,22.25
2019-04-21T10:24:40.491Z,21.94
2019-04-21T10:25:40.599Z,22.12
2019-04-21T10:26:39.406Z,22.06
2019-04-21T10:27:39.419Z,22.67
2019-04-21T10:28:39.388Z,22.67
2019-04-21T10:29:43.028Z,23.43
2019-04-21T10:30:40.790Z,22.14
2019-04-21T10:31:40.651Z,22.66
2019-04-21T10:32:40.571Z,24.35
2019-04-21T10:33:39.967Z,21.20
2019-04-21T10:34:39.326Z,22.58
2019-04-21T10:35:39.465Z,22.22
2019-04-21T10:36:40.693Z,23.10
2019-04-21T10:37:52.290Z,23.74
2019-04-21T10:38:46.068Z,22.82
2019-04-21T10:39:40.283Z,22.27
2019-04-21T10:40:39.402Z,21.06
2019-04-21T10:41:39.364Z,20.43
2019-04-21T10:42:40.419Z,19.88
2019-04-21T10:43:39.258Z,20.64
2019-04-21T10:44:39.237Z,20.83
2019-04-21T10:45:39.269Z,21.82
2019-04-21T10:46:40.552Z,24.48
2019-04-21T10:47:39.209Z,21.47
2019-04-21T10:48:39.469Z,20.86
2019-04-21T10:49:40.213Z,20.48
2019-04-21T10:50:39.183Z,21.83
2019-04-21T10:51:39.368Z,22.20
2019-04-21T10:52:39.166Z,21.81
2019-04-21T10:53:39.157Z,20.78
2019-04-21T10:55:05.609Z,22.28
2019-04-21T10:55:57.917Z,20.61
2019-04-21T10:56:43.693Z,21.03
2019-04-21T10:57:40.195Z,20.39
2019-04-21T10:58:40.367Z,19.48
2019-04-21T10:59:40.414Z,20.39
2019-04-21T11:00:40.090Z,20.28
2019-04-21T11:01:39.086Z,20.50
2019-04-21T11:02:39.172Z,19.61
2019-04-21T11:03:40.377Z,20.18
2019-04-21T11:04:40.307Z,20.48
2019-04-21T11:05:39.045Z,19.26
2019-04-21T11:06:39.037Z,20.40
2019-04-21T11:07:53.084Z,18.23
2019-04-21T11:08:44.089Z,19.27
2019-04-21T11:09:40.253Z,19.78
2019-04-21T11:10:40.000Z,19.31
2019-04-21T11:11:39.714Z,20.49
2019-04-21T11:12:39.727Z,20.09
2019-04-21T11:13:38.975Z,22.26
2019-04-21T11:14:39.049Z,20.81
2019-04-21T11:15:39.254Z,20.73
2019-04-21T11:16:39.248Z,21.58
2019-04-21T11:17:41.558Z,22.37
2019-04-21T11:18:39.897Z,22.45
2019-04-21T11:19:39.017Z,21.75
2019-04-21T11:20:38.911Z,21.91
2019-04-21T11:21:38.895Z,21.24
2019-04-21T11:22:40.081Z,21.44
2019-04-21T11:23:38.884Z,20.55
2019-04-21T11:24:39.013Z,21.27
2019-04-21T11:25:39.963Z,20.94
2019-04-21T11:26:40.050Z,21.22
2019-04-21T11:27:38.846Z,23.43
2019-04-21T11:28:38.979Z,22.52
2019-04-21T11:29:39.243Z,22.52
2019-04-21T11:30:38.818Z,22.26
2019-04-21T11:31:38.963Z,22.16
2019-04-21T11:32:39.808Z,20.70
2019-04-21T11:33:39.577Z,20.89
2019-04-21T11:34:39.009Z,20.75
2019-04-21T11:35:39.333Z,20.81
2019-04-21T11:36:38.761Z,20.31
2019-04-21T11:37:39.843Z,21.32
2019-04-21T11:38:54.202Z,20.54
2019-04-21T11:39:51.172Z,20.72
2019-04-21T11:40:40.014Z,20.42
2019-04-21T11:41:39.377Z,19.71
2019-04-21T11:42:39.758Z,19.70
2019-04-21T11:43:39.121Z,19.61
2019-04-21T11:44:39.479Z,20.25
2019-04-21T11:45:39.969Z,20.25
2019-04-21T11:46:38.670Z,21.55
2019-04-21T11:47:38.661Z,20.37
2019-04-21T11:48:39.874Z,22.15
2019-04-21T11:49:39.038Z,20.75
2019-04-21T11:50:39.185Z,20.72
2019-04-21T11:51:38.637Z,20.65
2019-04-21T11:52:38.920Z,21.38
2019-04-21T11:53:39.112Z,21.28
2019-04-21T11:54:38.589Z,20.36
2019-04-21T11:55:41.691Z,20.91
2019-04-21T11:56:40.718Z,19.98
2019-04-21T11:57:42.812Z,19.66
2019-04-21T11:58:39.649Z,20.45
2019-04-21T11:59:39.654Z,20.40
2019-04-21T12:00:39.819Z,21.29
2019-04-21T12:01:39.417Z,21.19
2019-04-21T12:02:39.577Z,21.50
2019-04-21T12:03:39.830Z,20.72
2019-04-21T12:04:39.274Z,20.91
2019-04-21T12:05:39.492Z,20.89
2019-04-21T12:06:43.623Z,20.55
2019-04-21T12:07:40.804Z,20.37
2019-04-21T12:08:42.818Z,20.53
2019-04-21T12:09:39.609Z,19.73
2019-04-21T12:10:39.644Z,20.10
2019-04-21T12:11:38.992Z,20.46
2019-04-21T12:12:39.240Z,20.09
2019-04-21T12:13:38.409Z,21.19
2019-04-21T12:14:39.589Z,20.55
2019-04-21T12:15:38.917Z,21.81
2019-04-21T12:16:39.151Z,21.58
2019-04-21T12:17:39.469Z,21.60
2019-04-21T12:18:38.777Z,22.30
2019-04-21T12:19:38.731Z,21.87
2019-04-21T12:20:39.620Z,21.84
2019-04-21T12:21:49.011Z,21.28
2019-04-21T12:22:39.326Z,22.15
2019-04-21T12:23:38.546Z,21.88
2019-04-21T12:24:39.563Z,23.16
2019-04-21T12:25:38.994Z,23.24
2019-04-21T12:26:38.346Z,23.25
2019-04-21T12:27:38.277Z,23.95
2019-04-21T12:28:39.704Z,23.85
2019-04-21T12:29:39.798Z,23.95
2019-04-21T12:30:38.256Z,23.66
2019-04-21T12:31:39.265Z,24.07
2019-04-21T12:32:38.229Z,24.33
2019-04-21T12:33:38.225Z,23.92
2019-04-21T12:34:39.610Z,23.62
2019-04-21T12:35:38.195Z,24.04
2019-04-21T12:36:38.207Z,23.75
2019-04-21T12:37:38.183Z,25.04
2019-04-21T12:38:46.242Z,25.15
2019-04-21T12:39:39.187Z,24.95
2019-04-21T12:40:38.876Z,23.84
2019-04-21T12:41:38.449Z,24.84
2019-04-21T12:42:39.296Z,24.55
2019-04-21T12:43:38.956Z,24.15
2019-04-21T12:44:39.158Z,25.25
2019-04-21T12:45:38.100Z,24.84
2019-04-21T12:46:38.203Z,25.05
2019-04-21T12:47:38.078Z,25.77
2019-04-21T12:48:38.109Z,25.15
2019-04-21T12:49:38.263Z,25.65
2019-04-21T12:50:39.473Z,24.25
2019-04-21T12:51:38.042Z,24.55
2019-04-21T12:52:38.037Z,25.35
2019-04-21T12:53:39.122Z,25.35
2019-04-21T12:54:38.018Z,25.55
2019-04-21T12:55:42.777Z,25.26
2019-04-21T12:56:38.997Z,25.05
2019-04-21T12:57:39.163Z,25.65
2019-04-21T12:58:39.453Z,25.34
2019-04-21T12:59:39.517Z,25.04
2019-04-21T13:00:38.893Z,25.15
2019-04-21T13:01:39.009Z,25.45
2019-04-21T13:02:38.053Z,25.63
2019-04-21T13:03:37.952Z,25.24
2019-04-21T13:04:37.943Z,25.71
2019-04-21T13:05:38.004Z,24.09
2019-04-21T13:06:39.326Z,24.48
2019-04-21T13:07:37.899Z,23.55
2019-04-21T13:08:45.528Z,23.35
2019-04-21T13:09:40.158Z,23.54
2019-04-21T13:10:38.174Z,23.46
2019-04-21T13:11:39.150Z,23.44
2019-04-21T13:12:37.999Z,22.92
2019-04-21T13:13:37.823Z,22.33
2019-04-21T13:14:38.029Z,22.73
2019-04-21T13:15:37.804Z,23.13
2019-04-21T13:16:39.146Z,22.61
2019-04-21T13:17:37.786Z,21.12
2019-04-21T13:18:37.802Z,21.92
2019-04-21T13:19:38.981Z,22.61
2019-04-21T13:20:38.199Z,22.09
2019-04-21T13:21:38.121Z,22.11
2019-04-21T13:22:37.736Z,22.00
2019-04-21T13:23:39.023Z,22.88
2019-04-21T13:24:38.010Z,22.11
2019-04-21T13:25:38.091Z,22.53
2019-04-21T13:26:45.829Z,23.53
2019-04-21T13:27:38.814Z,23.13
2019-04-21T13:28:37.782Z,24.37
2019-04-21T13:29:38.574Z,23.97
2019-04-21T13:30:38.079Z,24.37
2019-04-21T13:31:38.415Z,23.68
2019-04-21T13:32:37.643Z,24.17
2019-04-21T13:33:37.823Z,24.37
2019-04-21T13:34:37.905Z,23.96
2019-04-21T13:35:39.018Z,23.26
2019-04-21T13:36:37.608Z,23.84
2019-04-21T13:37:37.625Z,23.68
2019-04-21T13:38:50.393Z,24.51
2019-04-21T13:40:06.561Z,24.27
2019-04-21T13:40:53.372Z,23.42
2019-04-21T13:41:49.408Z,22.49
2019-04-21T13:42:44.460Z,23.26
2019-04-21T13:43:39.229Z,22.16
2019-04-21T13:44:37.531Z,21.84
2019-04-21T13:45:37.555Z,21.58
2019-04-21T13:46:38.657Z,22.30
2019-04-21T13:47:38.731Z,24.99
2019-04-21T13:48:37.485Z,24.52
2019-04-21T13:49:37.486Z,25.49